Time;durP1;ratioP1;P1;durP2;ratioP2;P2;SDS_P1;SDS_P2;PMS_P1;PMS_P2;Temp;Humidity;BMP_temperature;BMP_pressure;BME280_temperature;BME280_humidity;BME280_pressure;Samples;Min_cycle;Max_cycle;Signal;HPM_P1;HPM_P2
2022/11/30 00:00:39;;;;;;;10.63;5.17;;;;;;;-1.85;67.59;102300.16;1835252;77;20946;-86
2022/11/30 00:03:07;;;;;;;9.83;5.05;;;;;;;-1.84;67.68;102298.47;1835393;77;20950;-87
2022/11/30 00:05:34;;;;;;;10.05;6.03;;;;;;;-1.81;67.56;102301.95;1835441;77;20914;-87
2022/11/30 00:08:00;;;;;;;14.98;7.42;;;;;;;-1.76;67.50;102294.31;1836155;77;21218;-88
2022/11/30 00:10:27;;;;;;;7.92;5.28;;;;;;;-1.70;67.24;102299.57;1836201;78;21301;-87
2022/11/30 00:12:54;;;;;;;12.85;5.55;;;;;;;-1.70;66.99;102287.57;1835322;77;20902;-88
2022/11/30 00:15:22;;;;;;;13.93;5.10;;;;;;;-1.72;66.96;102290.53;1835338;77;20835;-88
2022/11/30 00:17:49;;;;;;;9.05;4.37;;;;;;;-1.77;66.89;102283.17;1835641;77;20914;-89
2022/11/30 00:20:16;;;;;;;11.33;4.45;;;;;;;-1.81;67.01;102286.52;1807993;78;21376;-86
2022/11/30 00:22:44;;;;;;;8.65;4.83;;;;;;;-1.78;66.89;102286.98;1835115;77;20879;-86
2022/11/30 00:25:11;;;;;;;11.15;4.87;;;;;;;-1.75;66.90;102296.06;1835361;77;20954;-89
2022/11/30 00:27:38;;;;;;;13.95;5.20;;;;;;;-1.72;66.82;102286.67;1844554;77;20934;-88
2022/11/30 00:30:06;;;;;;;9.85;4.42;;;;;;;-1.70;66.41;102289.28;1861274;77;20875;-85
2022/11/30 00:32:33;;;;;;;16.55;5.95;;;;;;;-1.70;66.24;102297.00;1861868;77;21463;-91
2022/11/30 00:34:59;;;;;;;14.83;4.65;;;;;;;-1.74;66.18;102308.06;1861196;76;20868;-84
2022/11/30 00:37:26;;;;;;;8.88;4.33;;;;;;;-1.75;66.04;102298.20;1861617;76;20891;-87
2022/11/30 00:39:52;;;;;;;8.18;5.45;;;;;;;-1.76;65.85;102291.31;1862234;77;20879;-88
2022/11/30 00:42:19;;;;;;;8.75;4.00;;;;;;;-1.76;65.91;102293.88;1862592;77;21353;-88
2022/11/30 00:44:46;;;;;;;10.55;5.10;;;;;;;-1.76;65.75;102286.17;1861721;77;21129;-89
2022/11/30 00:47:13;;;;;;;9.95;6.40;;;;;;;-1.78;65.85;102284.02;1862255;77;20879;-89
2022/11/30 00:49:40;;;;;;;11.20;4.30;;;;;;;-1.76;65.82;102278.88;1863428;77;20879;-86
2022/11/30 00:52:06;;;;;;;8.90;5.67;;;;;;;-1.77;65.59;102272.02;1863738;76;20990;-86
2022/11/30 00:54:34;;;;;;;7.65;4.12;;;;;;;-1.81;65.66;102265.09;1863317;77;20911;-87
2022/11/30 00:57:00;;;;;;;9.55;4.35;;;;;;;-1.81;65.68;102262.09;1862683;77;21218;-89
2022/11/30 00:59:27;;;;;;;11.63;4.87;;;;;;;-1.85;65.77;102268.01;1863147;77;20963;-89
2022/11/30 01:01:54;;;;;;;9.25;4.85;;;;;;;-1.85;65.81;102274.87;1863190;77;20927;-87
2022/11/30 01:04:21;;;;;;;12.50;6.67;;;;;;;-1.85;65.78;102267.16;1805951;76;21001;-87
2022/11/30 01:06:48;;;;;;;8.55;4.53;;;;;;;-1.87;65.78;102269.69;1863516;77;20899;-84
2022/11/30 01:09:15;;;;;;;12.43;5.10;;;;;;;-1.86;65.71;102272.72;1862945;77;21130;-86
2022/11/30 01:11:42;;;;;;;8.03;4.10;;;;;;;-1.85;65.67;102270.58;1862868;77;21025;-89
2022/11/30 01:14:09;;;;;;;8.40;4.28;;;;;;;-1.81;65.48;102283.09;1863090;77;21060;-88
2022/11/30 01:16:36;;;;;;;6.20;4.62;;;;;;;-1.80;65.41;102273.23;1862808;77;20985;-89
2022/11/30 01:19:02;;;;;;;8.58;5.22;;;;;;;-1.80;65.13;102279.66;1861270;77;20895;-88
2022/11/30 01:21:29;;;;;;;8.35;4.33;;;;;;;-1.83;65.21;102284.33;1860936;77;21129;-88
2022/11/30 01:23:56;;;;;;;8.18;4.50;;;;;;;-1.84;65.30;102281.76;1860795;76;20946;-87
2022/11/30 01:26:23;;;;;;;8.85;4.55;;;;;;;-1.82;65.35;102281.34;1861346;77;20871;-88
2022/11/30 01:28:52;;;;;;;8.43;4.35;;;;;;;-1.76;65.30;102287.45;1860895;76;20950;-88
2022/11/30 01:31:22;;;;;;;9.43;4.92;;;;;;;-1.71;65.04;102279.42;1860661;77;20970;-86
2022/11/30 01:33:52;;;;;;;10.03;4.95;;;;;;;-1.70;65.04;102278.57;1860908;77;20979;-88
2022/11/30 01:36:24;;;;;;;8.75;4.28;;;;;;;-1.66;64.46;102279.50;1860780;77;20927;-87
2022/11/30 01:38:54;;;;;;;14.90;5.20;;;;;;;-1.69;64.67;102284.57;1860468;77;20891;-87
2022/11/30 01:41:25;;;;;;;12.88;5.10;;;;;;;-1.67;64.77;102290.22;1860514;77;20911;-86
2022/11/30 01:43:59;;;;;;;13.55;4.92;;;;;;;-1.62;64.50;102299.69;1860620;77;21345;-87
2022/11/30 01:46:29;;;;;;;;;;;;;;;-1.69;64.14;102286.75;1858629;77;21026;-87
2022/11/30 01:49:11;;;;;;;9.83;4.97;;;;;;;-1.73;64.41;102286.24;1860927;77;20099;-89
2022/11/30 01:51:50;;;;;;;12.58;3.90;;;;;;;-1.74;64.40;102281.92;1860470;77;20891;-87
2022/11/30 04:52:21;;;;;;;12.15;5.72;;;;;;;-1.83;65.27;102247.05;1756025;81;21528;-85
2022/11/30 04:54:50;;;;;;;17.50;5.70;;;;;;;-1.81;65.18;102241.95;1750929;81;21004;-84
2022/11/30 04:57:17;;;;;;;12.80;6.12;;;;;;;-1.78;65.25;102243.27;1751990;81;21009;-85
2022/11/30 04:59:43;;;;;;;12.47;5.78;;;;;;;-1.75;65.07;102253.20;1753327;81;21227;-85
2022/11/30 05:02:10;;;;;;;11.38;4.78;;;;;;;-1.73;64.95;102252.81;1762627;81;20884;-86
2022/11/30 05:04:38;;;;;;;15.95;5.62;;;;;;;-1.70;65.45;102244.28;1760930;81;21330;-86
2022/11/30 05:07:04;;;;;;;11.35;4.10;;;;;;;-1.69;64.94;102244.70;1724906;83;20987;-84
2022/11/30 05:09:32;;;;;;;14.00;5.33;;;;;;;-1.71;64.71;102250.28;1676563;84;20930;-84
2022/11/30 05:11:58;;;;;;;9.80;5.83;;;;;;;-1.73;64.77;102253.23;1683881;84;21152;-85
2022/11/30 05:14:25;;;;;;;13.20;6.12;;;;;;;-1.77;64.74;102257.45;1700871;83;20950;-85
2022/11/30 05:16:51;;;;;;;10.18;5.22;;;;;;;-1.75;64.84;102268.63;1725469;83;21805;-84
2022/11/30 05:19:18;;;;;;;11.53;6.00;;;;;;;-1.77;64.83;102259.16;1698998;84;21070;-83
2022/11/30 05:21:45;;;;;;;11.12;5.08;;;;;;;-1.74;64.69;102266.49;1714012;83;21066;-85
2022/11/30 05:24:13;;;;;;;9.03;4.20;;;;;;;-1.72;64.59;102273.81;1691291;84;20990;-85
2022/11/30 05:26:39;;;;;;;14.05;4.53;;;;;;;-1.72;64.49;102280.67;1686991;84;20999;-83
2022/11/30 05:29:05;;;;;;;15.65;4.75;;;;;;;-1.73;64.47;102278.53;1681388;84;20954;-86
2022/11/30 05:31:32;;;;;;;9.93;5.25;;;;;;;-1.72;64.49;102281.95;1691835;84;20931;-86
2022/11/30 05:33:59;;;;;;;12.73;4.37;;;;;;;-1.72;64.39;102271.25;1693559;84;20867;-86
2022/11/30 05:36:25;;;;;;;9.15;3.87;;;;;;;-1.73;64.51;102269.53;1659802;84;21329;-84
2022/11/30 05:38:52;;;;;;;16.12;6.33;;;;;;;-1.73;64.49;102264.39;1688726;84;20968;-86
2022/11/30 05:41:18;;;;;;;8.45;4.15;;;;;;;-1.77;64.38;102273.31;1680914;83;20906;-86
2022/11/30 05:43:44;;;;;;;11.38;4.47;;;;;;;-1.83;64.24;102262.48;1686523;84;20906;-87
2022/11/30 05:46:11;;;;;;;12.63;5.37;;;;;;;-1.84;64.39;102270.19;1680730;84;21455;-86
2022/11/30 05:48:38;;;;;;;10.10;5.33;;;;;;;-1.82;64.33;102271.95;1689292;84;21975;-86
2022/11/30 05:51:08;;;;;;;11.20;3.70;;;;;;;-1.81;64.40;102273.66;1692644;84;21003;-84
2022/11/30 05:53:35;;;;;;;10.08;4.67;;;;;;;-1.78;64.57;102276.70;1680821;83;21048;-85
2022/11/30 05:56:06;;;;;;;10.25;4.72;;;;;;;-1.71;64.40;102278.14;1690276;84;20993;-87
2022/11/30 05:58:33;;;;;;;18.32;4.12;;;;;;;-1.64;63.92;102276.97;1685262;84;20966;-87
2022/11/30 06:01:00;;;;;;;7.97;3.87;;;;;;;-1.61;63.66;102283.02;1685541;84;21276;-87
2022/11/30 06:03:29;;;;;;;16.50;4.08;;;;;;;-1.63;63.25;102275.69;1680737;84;20906;-87
2022/11/30 06:05:55;;;;;;;10.55;4.17;;;;;;;-1.67;62.97;102279.93;1690248;84;20866;-85
2022/11/30 06:08:22;;;;;;;8.85;3.92;;;;;;;-1.68;63.15;102276.89;1686618;84;20987;-82
2022/11/30 06:10:49;;;;;;;10.85;3.70;;;;;;;-1.62;63.13;102283.87;1681365;84;21116;-84
2022/11/30 06:13:15;;;;;;;8.43;3.42;;;;;;;-1.56;63.03;102284.37;1697882;84;21903;-85
2022/11/30 06:15:42;;;;;;;16.62;3.92;;;;;;;-1.53;62.92;102293.02;1686765;84;21653;-84
2022/11/30 06:18:11;;;;;;;8.60;3.72;;;;;;;-1.51;62.70;102290.48;1684649;84;21495;-84
2022/11/30 06:20:38;;;;;;;13.25;4.75;;;;;;;-1.47;62.68;102287.09;1687266;84;20940;-84
2022/11/30 06:23:04;;;;;;;9.68;4.55;;;;;;;-1.43;62.48;102281.59;1684853;84;20938;-82
2022/11/30 06:25:31;;;;;;;12.05;4.53;;;;;;;-1.44;62.45;102280.73;1685562;84;21326;-85
2022/11/30 06:27:58;;;;;;;13.78;3.58;;;;;;;-1.42;62.05;102282.02;1691739;84;20907;-86
2022/11/30 06:30:24;;;;;;;10.60;4.10;;;;;;;-1.45;61.71;102285.41;1682877;84;20911;-85
2022/11/30 06:32:51;;;;;;;7.50;4.35;;;;;;;-1.44;61.35;102294.02;1693973;84;21037;-86
2022/11/30 06:35:18;;;;;;;14.35;5.20;;;;;;;-1.47;61.51;102299.56;1692713;84;20904;-86
2022/11/30 06:37:45;;;;;;;13.75;3.80;;;;;;;-1.43;61.25;102286.73;1687280;84;21240;-87
2022/11/30 06:40:12;;;;;;;11.25;4.45;;;;;;;-1.38;61.31;102297.56;1691161;84;21029;-85
2022/11/30 06:42:39;;;;;;;8.55;4.35;;;;;;;-1.34;60.82;102294.60;1688396;82;21053;-88
2022/11/30 06:45:06;;;;;;;12.05;4.17;;;;;;;-1.31;60.77;102292.95;1688836;83;21049;-86
2022/11/30 06:47:34;;;;;;;14.70;4.80;;;;;;;-1.28;60.80;102294.28;1690508;84;20967;-88
2022/11/30 06:50:00;;;;;;;16.35;3.58;;;;;;;-1.23;61.04;102294.34;1689663;84;21052;-85
2022/11/30 06:52:30;;;;;;;10.32;4.47;;;;;;;-1.15;60.74;102299.64;1684951;83;20907;-86
2022/11/30 06:54:56;;;;;;;8.03;4.15;;;;;;;-1.14;60.75;102290.63;1689585;84;20931;-87
2022/11/30 06:57:29;;;;;;;13.22;5.03;;;;;;;-1.11;60.69;102281.69;1695538;84;20919;-87
2022/11/30 06:59:56;;;;;;;16.48;5.28;;;;;;;-1.06;60.45;102272.73;1688726;84;21148;-87
2022/11/30 07:02:22;;;;;;;15.83;5.97;;;;;;;-0.98;60.61;102285.28;1691056;83;21215;-87
2022/11/30 07:04:49;;;;;;;17.30;5.20;;;;;;;-0.88;60.56;102285.87;1692878;84;21033;-88
2022/11/30 07:07:15;;;;;;;14.90;5.95;;;;;;;-0.77;60.38;102283.87;1691487;84;20991;-84
2022/11/30 07:09:42;;;;;;;13.75;5.47;;;;;;;-0.67;60.24;102280.56;1685364;84;21039;-86
2022/11/30 07:12:10;;;;;;;14.65;5.72;;;;;;;-0.56;59.63;102288.44;1688757;84;20976;-87
2022/11/30 07:14:37;;;;;;;18.85;5.53;;;;;;;-0.49;59.32;102289.84;1685184;84;21214;-86
2022/11/30 07:17:04;;;;;;;16.87;5.28;;;;;;;-0.44;59.03;102283.02;1681131;84;21021;-86
2022/11/30 07:19:33;;;;;;;14.68;4.35;;;;;;;-0.41;58.52;102286.05;1680932;84;20918;-87
2022/11/30 07:22:01;;;;;;;11.40;6.25;;;;;;;-0.33;58.47;102283.16;1687101;84;20983;-87
2022/11/30 07:27:13;;;;;;;13.95;5.28;;;;;;;-0.12;58.08;102285.53;1692914;84;21266;-85
2022/11/30 07:29:40;;;;;;;11.40;4.75;;;;;;;-0.05;57.64;102285.60;1697233;81;20916;-86
2022/11/30 07:32:06;;;;;;;14.00;4.33;;;;;;;0.04;57.57;102292.58;1693353;81;20903;-89
2022/11/30 23:32:15;;;;;;;9.38;5.15;;;;;;;1.01;53.08;102368.33;1766767;80;21479;-87
2022/11/30 23:34:42;;;;;;;9.13;4.17;;;;;;;0.95;53.06;102370.86;1773087;80;21476;-87
2022/11/30 23:37:08;;;;;;;13.93;4.05;;;;;;;0.93;52.90;102374.71;1776085;80;20979;-86
2022/11/30 23:39:35;;;;;;;7.97;4.15;;;;;;;0.93;52.97;102381.60;1742480;80;20919;-86
2022/11/30 23:42:02;;;;;;;16.02;4.08;;;;;;;0.93;52.95;102382.89;1719510;80;21157;-86
2022/11/30 23:44:29;;;;;;;8.33;4.15;;;;;;;0.92;52.73;102378.59;1761738;80;21358;-85
2022/11/30 23:46:55;;;;;;;10.53;3.92;;;;;;;0.91;52.82;102382.02;1753288;80;21496;-86
2022/11/30 23:49:22;;;;;;;8.93;3.67;;;;;;;0.91;52.72;102380.72;1773648;80;21414;-91
2022/11/30 23:51:49;;;;;;;8.45;3.40;;;;;;;0.92;52.53;102387.20;1741852;80;20908;-88
2022/11/30 23:54:16;;;;;;;9.68;3.35;;;;;;;0.89;52.57;102381.12;1754060;80;21890;-85
2022/11/30 23:56:43;;;;;;;6.37;3.37;;;;;;;0.85;52.63;102385.86;1746657;80;21047;-89
2022/11/30 23:59:10;;;;;;;8.95;4.12;;;;;;;0.80;52.73;102382.80;1760000;80;21054;-86
